createdAt,value
2018-05-11T00:00:58.529Z,16.93
2018-05-11T00:03:26.002Z,8.70
2018-05-11T00:05:53.498Z,14.53
2018-05-11T00:08:21.001Z,13.27
2018-05-11T00:10:48.456Z,18.63
2018-05-11T00:13:15.987Z,8.83
2018-05-11T00:15:43.485Z,11.53
2018-05-11T00:18:11.020Z,17.60
2018-05-11T00:20:38.498Z,16.30
2018-05-11T00:23:05.981Z,8.90
2018-05-11T00:25:33.460Z,9.53
2018-05-11T00:28:00.956Z,12.70
2018-05-11T00:30:28.457Z,9.20
2018-05-11T00:32:56.705Z,12.33
2018-05-11T00:35:24.184Z,12.07
2018-05-11T00:37:51.680Z,14.93
2018-05-11T00:40:19.160Z,12.90
2018-05-11T00:42:46.641Z,7.90
2018-05-11T00:45:14.139Z,14.87
2018-05-11T00:47:42.416Z,11.20
2018-05-11T00:50:10.664Z,8.67
2018-05-11T00:52:38.132Z,9.60
2018-05-11T00:55:17.525Z,8.07
2018-05-11T00:57:45.006Z,8.90
2018-05-11T01:00:12.484Z,10.67
2018-05-11T01:02:40.003Z,8.40
2018-05-11T01:05:07.477Z,19.50
2018-05-11T01:07:34.992Z,13.53
2018-05-11T01:10:03.225Z,13.30
2018-05-11T01:12:31.501Z,8.30
2018-05-11T01:14:59.009Z,7.90
2018-05-11T01:17:26.514Z,9.33
2018-05-11T01:19:53.972Z,11.50
2018-05-11T01:22:21.483Z,10.20
2018-05-11T01:24:48.968Z,10.00
2018-05-11T01:27:16.440Z,9.82
2018-05-11T01:29:43.956Z,8.40
2018-05-11T01:32:11.436Z,11.57
2018-05-11T01:34:38.928Z,8.95
2018-05-11T01:37:06.432Z,10.40
2018-05-11T01:39:33.937Z,9.73
2018-05-11T01:42:01.410Z,7.83
2018-05-11T01:44:28.901Z,14.43
2018-05-11T01:46:56.379Z,9.15
2018-05-11T01:49:23.888Z,10.98
2018-05-11T01:51:51.360Z,8.10
2018-05-11T01:54:19.621Z,13.23
2018-05-11T01:56:47.097Z,9.10
2018-05-11T01:59:15.345Z,8.57
2018-05-11T02:01:42.850Z,6.95
2018-05-11T02:04:10.317Z,8.48
2018-05-11T02:06:37.816Z,9.07
2018-05-11T02:09:06.105Z,9.80
2018-05-11T02:11:33.625Z,19.08
2018-05-11T02:14:01.090Z,10.13
2018-05-11T02:16:28.600Z,9.60
2018-05-11T02:18:56.069Z,8.80
2018-05-11T02:21:24.341Z,8.45
2018-05-11T02:23:52.589Z,8.32
2018-05-11T02:26:20.110Z,8.77
2018-05-11T02:28:47.609Z,10.75
2018-05-11T02:31:15.122Z,11.25
2018-05-11T02:33:42.593Z,9.60
2018-05-11T02:36:10.077Z,10.55
2018-05-11T02:38:37.576Z,9.00
2018-05-11T02:41:05.832Z,10.10
2018-05-11T02:43:33.387Z,10.60
2018-05-11T02:46:00.866Z,10.23
2018-05-11T02:48:29.128Z,9.90
2018-05-11T02:50:56.616Z,17.23
2018-05-11T02:53:24.877Z,10.32
2018-05-11T02:55:53.110Z,7.97
2018-05-11T02:58:20.611Z,9.45
2018-05-11T03:00:48.848Z,8.57
2018-05-11T03:03:16.339Z,11.75
2018-05-11T03:05:44.582Z,12.50
2018-05-11T03:08:12.173Z,12.02
2018-05-11T03:10:39.641Z,9.43
2018-05-11T03:13:07.885Z,9.57
2018-05-11T03:15:35.389Z,6.35
2018-05-11T03:18:02.890Z,12.88
2018-05-11T03:20:30.387Z,7.50
2018-05-11T03:22:57.845Z,6.00
2018-05-11T03:25:26.092Z,9.40
2018-05-11T03:27:53.561Z,10.90
2018-05-11T03:30:21.086Z,10.35
2018-05-11T03:32:48.553Z,8.27
2018-05-11T03:35:16.049Z,7.82
2018-05-11T03:37:43.517Z,8.30
2018-05-11T03:40:11.004Z,8.10
2018-05-11T03:42:38.488Z,5.82
2018-05-11T03:45:05.944Z,7.40
2018-05-11T03:47:33.436Z,17.52
2018-05-11T03:50:00.933Z,9.88
2018-05-11T03:52:28.431Z,6.87
2018-05-11T03:54:55.947Z,8.73
2018-05-11T03:57:24.272Z,8.77
2018-05-11T03:59:51.761Z,7.25
2018-05-11T04:02:32.025Z,7.25
2018-05-11T04:05:11.469Z,7.22
2018-05-11T04:07:51.563Z,9.35
2018-05-11T04:10:19.070Z,8.27
2018-05-11T04:12:46.532Z,14.05
2018-05-11T04:15:14.014Z,7.70
2018-05-11T04:17:41.580Z,7.10
2018-05-11T04:20:09.065Z,6.93
2018-05-11T04:22:36.549Z,9.15
2018-05-11T04:25:04.053Z,8.00
2018-05-11T04:27:31.521Z,11.88
2018-05-11T04:29:59.022Z,16.65
2018-05-11T04:32:26.511Z,8.45
2018-05-11T04:34:54.761Z,8.32
2018-05-11T04:37:22.273Z,11.02
2018-05-11T04:39:50.523Z,11.27
2018-05-11T04:42:18.768Z,11.27
2018-05-11T04:44:46.245Z,6.75
2018-05-11T04:47:13.768Z,8.98
2018-05-11T04:49:41.249Z,10.50
2018-05-11T04:52:08.756Z,9.85
2018-05-11T04:54:36.225Z,8.85
2018-05-11T04:57:03.718Z,12.23
2018-05-11T04:59:31.198Z,10.10
2018-05-11T05:01:58.690Z,9.93
2018-05-11T05:04:26.178Z,9.30
2018-05-11T05:06:53.645Z,12.50
2018-05-11T05:09:21.163Z,12.18
2018-05-11T05:11:48.660Z,9.55
2018-05-11T05:14:16.156Z,14.75
2018-05-11T05:16:44.413Z,6.70
2018-05-11T05:19:11.957Z,17.30
2018-05-11T05:21:40.182Z,16.12
2018-05-11T05:24:08.435Z,10.27
2018-05-11T05:26:36.672Z,8.05
2018-05-11T05:29:04.193Z,11.85
2018-05-11T05:31:32.497Z,12.95
2018-05-11T05:33:59.979Z,9.73
2018-05-11T05:36:27.449Z,12.15
2018-05-11T05:38:54.950Z,14.80
2018-05-11T05:41:23.234Z,8.52
2018-05-11T05:43:50.723Z,17.75
2018-05-11T05:46:18.221Z,15.15
2018-05-11T05:48:45.698Z,13.73
2018-05-11T05:51:13.230Z,17.98
2018-05-11T05:53:40.777Z,11.45
2018-05-11T05:56:08.282Z,10.77
2018-05-11T05:58:35.793Z,12.27
2018-05-11T06:01:03.300Z,16.60
2018-05-11T06:03:31.565Z,17.25
2018-05-11T06:05:59.829Z,21.60
2018-05-11T06:08:28.100Z,16.30
2018-05-11T06:10:55.671Z,18.33
2018-05-11T06:13:23.154Z,14.77
2018-05-11T06:15:50.652Z,16.07
2018-05-11T06:18:18.125Z,17.23
2018-05-11T06:20:45.599Z,22.33
2018-05-11T06:23:13.169Z,18.67
2018-05-11T06:25:40.670Z,22.77
2018-05-11T06:28:08.168Z,30.73
2018-05-11T06:30:35.646Z,33.80
2018-05-11T06:33:03.941Z,38.67
2018-05-11T06:35:32.200Z,35.43
2018-05-11T06:38:00.470Z,42.07
2018-05-11T06:40:28.787Z,40.33
2018-05-11T06:42:56.220Z,37.70
2018-05-11T06:45:24.481Z,35.40
2018-05-11T06:47:52.013Z,35.10
2018-05-11T06:50:19.489Z,35.57
2018-05-11T06:52:46.978Z,36.77
2018-05-11T06:55:15.280Z,38.23
2018-05-11T06:57:42.769Z,34.33
2018-05-11T07:00:10.282Z,39.87
2018-05-11T07:02:37.765Z,34.87
2018-05-11T07:05:05.304Z,30.67
2018-05-11T07:07:32.909Z,36.10
2018-05-11T07:10:00.324Z,41.20
2018-05-11T07:12:27.802Z,36.70
2018-05-11T07:14:55.339Z,32.27
2018-05-11T07:17:23.590Z,37.00
2018-05-11T07:19:51.907Z,52.40
2018-05-11T07:22:19.385Z,38.10
2018-05-11T07:24:46.921Z,55.93
2018-05-11T07:27:14.425Z,38.17
2018-05-11T07:29:41.926Z,36.47
2018-05-11T07:32:09.451Z,41.33
2018-05-11T07:34:36.929Z,38.90
2018-05-11T07:37:05.192Z,40.50
2018-05-11T07:39:33.470Z,37.90
2018-05-11T07:42:02.565Z,32.13
2018-05-11T07:44:30.792Z,45.03
2018-05-11T07:46:58.291Z,36.60
2018-05-11T07:49:27.283Z,36.27
2018-05-11T07:51:54.797Z,36.97
2018-05-11T07:54:22.295Z,34.77
2018-05-11T07:56:49.796Z,31.40
2018-05-11T07:59:17.269Z,30.67
2018-05-11T08:01:44.842Z,37.97
2018-05-11T08:04:12.320Z,36.60
2018-05-11T08:06:39.830Z,32.73
2018-05-11T08:09:08.120Z,32.13
2018-05-11T08:11:35.602Z,32.10
2018-05-11T08:14:03.156Z,29.97
2018-05-11T08:16:30.622Z,26.57
2018-05-11T08:18:58.172Z,27.97
2018-05-11T08:21:25.717Z,32.17
2018-05-11T08:23:53.180Z,34.93
2018-05-11T08:26:20.677Z,32.67
2018-05-11T08:28:48.174Z,35.47
2018-05-11T08:31:16.449Z,29.57
2018-05-11T08:33:44.731Z,36.90
2018-05-11T08:36:12.965Z,34.13
2018-05-11T08:38:40.470Z,32.37
2018-05-11T08:41:08.734Z,34.40
2018-05-11T08:43:36.981Z,31.30
2018-05-11T08:46:04.488Z,40.30
2018-05-11T08:48:32.758Z,31.50
2018-05-11T08:51:01.048Z,32.10
2018-05-11T08:53:29.304Z,30.27
2018-05-11T08:55:57.678Z,31.70
2018-05-11T08:58:25.078Z,33.77
2018-05-11T09:00:52.670Z,34.20
2018-05-11T09:03:20.844Z,26.40
2018-05-11T09:05:48.405Z,32.10
2018-05-11T09:08:15.964Z,32.33
2018-05-11T09:10:43.475Z,32.67
2018-05-11T09:13:10.952Z,36.53
2018-05-11T09:15:38.557Z,29.63
2018-05-11T09:18:06.026Z,30.93
2018-05-11T09:20:33.541Z,36.33
2018-05-11T09:23:01.009Z,30.53
2018-05-11T09:25:28.516Z,30.07
2018-05-11T09:27:56.828Z,25.87
2018-05-11T09:30:24.317Z,27.20
2018-05-11T09:32:51.837Z,24.70
2018-05-11T09:35:19.306Z,30.93
2018-05-11T09:37:46.858Z,28.73
2018-05-11T09:40:14.329Z,27.27
2018-05-11T09:42:41.881Z,25.97
2018-05-11T09:45:09.377Z,34.87
2018-05-11T09:47:38.395Z,27.20
2018-05-11T09:50:06.643Z,31.87
2018-05-11T09:52:36.564Z,29.90
2018-05-11T09:55:05.614Z,28.97
2018-05-11T09:57:33.850Z,26.90
2018-05-11T10:00:01.392Z,24.37
2018-05-11T10:02:28.892Z,24.53
2018-05-11T10:04:56.386Z,28.93
2018-05-11T10:07:23.881Z,29.90
2018-05-11T10:09:51.373Z,30.20
2018-05-11T10:12:18.849Z,31.60
2018-05-11T10:14:46.345Z,28.97
2018-05-11T10:17:15.352Z,29.67
2018-05-11T10:19:44.222Z,30.63
2018-05-11T10:22:11.720Z,25.60
2018-05-11T10:24:40.012Z,29.10
2018-05-11T10:27:07.474Z,27.87
2018-05-11T10:29:34.969Z,30.37
2018-05-11T10:32:02.472Z,27.10
2018-05-11T10:34:30.802Z,26.67
2018-05-11T10:36:59.023Z,25.30
2018-05-11T10:39:27.301Z,30.10
2018-05-11T10:41:55.561Z,26.07
2018-05-11T10:44:23.044Z,24.37
2018-05-11T10:46:51.321Z,29.40
2018-05-11T10:49:18.818Z,27.43
2018-05-11T10:51:46.369Z,27.50
2018-05-11T10:54:13.844Z,24.20
2018-05-11T10:56:41.365Z,22.70
2018-05-11T10:59:08.842Z,20.43
2018-05-11T11:01:36.353Z,20.10
2018-05-11T11:04:03.868Z,23.50
2018-05-11T11:06:31.419Z,22.17
2018-05-11T11:08:58.902Z,26.10
2018-05-11T11:11:26.412Z,22.87
2018-05-11T11:13:54.700Z,18.83
2018-05-11T11:16:22.244Z,22.10
2018-05-11T11:18:50.493Z,26.20
2018-05-11T11:21:18.733Z,22.57
2018-05-11T11:23:46.254Z,23.63
2018-05-11T11:26:14.535Z,25.00
2018-05-11T11:28:42.811Z,28.63
2018-05-11T11:31:11.596Z,22.40
2018-05-11T11:33:39.112Z,22.50
2018-05-11T11:36:06.602Z,23.20
2018-05-11T11:38:34.092Z,23.40
2018-05-11T11:41:01.594Z,25.37
2018-05-11T11:43:29.089Z,22.43
2018-05-11T11:45:57.338Z,25.67
2018-05-11T11:48:24.834Z,29.40
2018-05-11T11:50:53.081Z,23.03
2018-05-11T11:53:20.577Z,24.63
2018-05-11T11:55:48.065Z,23.67
2018-05-11T11:58:15.593Z,18.53
2018-05-11T12:00:43.850Z,22.50
2018-05-11T12:03:12.130Z,22.03
2018-05-11T12:05:40.404Z,21.93
2018-05-11T12:08:08.662Z,26.27
2018-05-11T12:10:36.154Z,28.23
2018-05-11T12:13:04.417Z,24.07
2018-05-11T12:15:32.689Z,19.80
2018-05-11T12:18:00.192Z,28.30
2018-05-11T12:20:27.690Z,22.50
2018-05-11T12:22:55.232Z,26.00
2018-05-11T12:25:22.736Z,22.23
2018-05-11T12:27:50.998Z,25.03
2018-05-11T12:30:18.532Z,22.30
2018-05-11T12:32:46.035Z,23.70
2018-05-11T12:35:14.339Z,25.10
2018-05-11T12:37:41.900Z,25.87
2018-05-11T12:40:09.394Z,24.70
2018-05-11T12:42:36.883Z,22.47
2018-05-11T12:45:05.157Z,20.53
2018-05-11T12:47:33.423Z,31.53
2018-05-11T12:50:01.673Z,23.10
2018-05-11T12:52:29.201Z,27.40
2018-05-11T12:54:56.685Z,28.20
2018-05-11T12:57:24.233Z,20.30
2018-05-11T12:59:51.718Z,22.77
2018-05-11T13:02:19.243Z,20.90
2018-05-11T13:04:46.741Z,16.27
2018-05-11T13:07:14.348Z,21.60
2018-05-11T13:09:41.786Z,25.77
2018-05-11T13:12:10.053Z,24.10
2018-05-11T13:14:37.582Z,24.43
2018-05-11T13:17:05.059Z,24.37
2018-05-11T13:19:32.744Z,18.97
2018-05-11T13:22:00.998Z,21.87
2018-05-11T13:24:28.472Z,22.73
2018-05-11T13:26:55.998Z,19.70
2018-05-11T13:29:23.489Z,17.40
2018-05-11T13:31:50.992Z,19.90
2018-05-11T13:34:18.484Z,20.80
2018-05-11T13:36:45.968Z,26.60
2018-05-11T13:39:13.512Z,18.20
2018-05-11T13:41:40.981Z,20.03
2018-05-11T13:44:08.492Z,19.17
2018-05-11T13:46:36.033Z,24.57
2018-05-11T13:49:03.537Z,20.60
2018-05-11T13:51:31.054Z,23.57
2018-05-11T13:53:58.623Z,22.83
2018-05-11T13:56:26.233Z,21.13
2018-05-11T13:58:54.444Z,21.43
2018-05-11T14:01:22.720Z,16.30
2018-05-11T14:03:50.224Z,19.10
2018-05-11T14:06:17.744Z,15.57
2018-05-11T14:08:45.252Z,25.13
2018-05-11T14:11:12.750Z,17.00
2018-05-11T14:13:41.015Z,24.20
2018-05-11T14:16:09.281Z,27.23
2018-05-11T14:18:37.470Z,23.03
2018-05-11T14:21:05.720Z,24.63
2018-05-11T14:23:33.210Z,22.30
2018-05-11T14:26:01.490Z,21.23
2018-05-11T14:28:29.721Z,21.40
2018-05-11T14:30:57.248Z,20.33
2018-05-11T14:33:24.780Z,21.67
2018-05-11T14:35:53.021Z,19.40
2018-05-11T14:38:21.471Z,18.10
2018-05-11T14:40:48.949Z,21.30
2018-05-11T14:43:16.481Z,19.10
2018-05-11T14:45:44.013Z,21.40
2018-05-11T14:48:12.303Z,16.30
2018-05-11T14:50:40.553Z,22.50
2018-05-11T14:53:08.077Z,19.83
2018-05-11T14:55:35.568Z,21.53
2018-05-11T14:58:03.849Z,16.03
2018-05-11T15:00:32.813Z,23.17
2018-05-11T15:03:00.352Z,20.77
2018-05-11T15:05:27.829Z,19.80
2018-05-11T15:07:55.318Z,27.50
2018-05-11T15:10:22.837Z,24.00
2018-05-11T15:12:50.352Z,19.73
2018-05-11T15:15:18.618Z,23.63
2018-05-11T15:17:46.930Z,18.50
2018-05-11T15:20:14.411Z,21.33
2018-05-11T15:22:41.873Z,25.33
2018-05-11T15:25:09.389Z,23.23
2018-05-11T15:27:36.871Z,22.10
2018-05-11T15:30:04.369Z,24.47
2018-05-11T15:32:31.858Z,21.67
2018-05-11T15:35:00.138Z,25.17
2018-05-11T15:37:28.408Z,21.77
2018-05-11T15:39:55.941Z,20.10
2018-05-11T15:42:23.486Z,22.07
2018-05-11T15:44:51.739Z,26.10
2018-05-11T15:47:19.204Z,20.40
2018-05-11T15:49:46.721Z,25.57
2018-05-11T15:52:14.967Z,24.53
2018-05-11T15:54:42.465Z,25.70
2018-05-11T15:57:10.716Z,32.43
2018-05-11T15:59:38.225Z,32.83
2018-05-11T16:02:05.718Z,26.23
2018-05-11T16:04:33.186Z,32.10
2018-05-11T16:07:00.689Z,22.67
2018-05-11T16:09:28.161Z,26.10
2018-05-11T16:11:55.675Z,26.67
2018-05-11T16:14:23.162Z,23.63
2018-05-11T16:16:51.411Z,23.10
2018-05-11T16:19:18.925Z,31.30
2018-05-11T16:21:46.439Z,27.63
2018-05-11T16:24:14.710Z,24.53
2018-05-11T16:26:42.239Z,23.10
2018-05-11T16:29:09.713Z,27.50
2018-05-11T16:31:37.248Z,27.90
2018-05-11T16:34:04.738Z,31.53
2018-05-11T16:36:32.213Z,38.83
2018-05-11T16:39:00.497Z,31.73
2018-05-11T16:41:28.735Z,27.93
2018-05-11T16:43:56.253Z,28.87
2018-05-11T16:46:23.753Z,30.27
2018-05-11T16:48:51.257Z,30.70
2018-05-11T16:51:18.745Z,29.80
2018-05-11T16:53:46.260Z,33.67
2018-05-11T16:56:14.574Z,28.27
2018-05-11T16:58:42.048Z,32.07
2018-05-11T17:01:09.544Z,31.30
2018-05-11T17:03:37.839Z,28.73
2018-05-11T17:06:06.131Z,25.37
2018-05-11T17:08:33.656Z,28.63
2018-05-11T17:11:01.141Z,30.40
2018-05-11T17:13:28.635Z,28.23
2018-05-11T17:15:56.138Z,30.67
2018-05-11T17:18:24.397Z,29.83
2018-05-11T17:20:51.904Z,34.30
2018-05-11T17:23:19.486Z,38.53
2018-05-11T17:25:46.990Z,28.83
2018-05-11T17:28:14.499Z,30.27
2018-05-11T17:30:41.963Z,29.67
2018-05-11T17:33:09.456Z,30.97
2018-05-11T17:35:36.975Z,37.70
2018-05-11T17:38:04.468Z,32.50
2018-05-11T17:40:31.969Z,28.23
2018-05-11T17:42:59.470Z,31.80
2018-05-11T17:45:26.971Z,30.63
2018-05-11T17:47:55.223Z,30.77
2018-05-11T17:50:22.798Z,26.60
2018-05-11T17:52:50.301Z,30.33
2018-05-11T17:55:17.796Z,28.27
2018-05-11T17:57:45.320Z,30.43
2018-05-11T18:00:12.791Z,26.50
2018-05-11T18:02:40.319Z,25.63
2018-05-11T18:05:07.809Z,27.43
2018-05-11T18:07:35.338Z,31.30
2018-05-11T18:10:02.862Z,28.83
2018-05-11T18:12:30.373Z,24.13
2018-05-11T18:14:57.882Z,27.67
2018-05-11T18:17:25.372Z,30.80
2018-05-11T18:19:53.651Z,27.37
2018-05-11T18:22:21.185Z,27.90
2018-05-11T18:24:48.660Z,32.90
2018-05-11T18:27:16.930Z,33.00
2018-05-11T18:29:45.207Z,29.10
2018-05-11T18:32:13.451Z,30.13
2018-05-11T18:34:40.958Z,27.20
2018-05-11T18:37:08.586Z,29.40
2018-05-11T18:39:36.131Z,28.67
2018-05-11T18:42:03.630Z,26.30
2018-05-11T18:44:31.893Z,30.63
2018-05-11T18:46:59.440Z,30.53
2018-05-11T18:49:26.917Z,26.67
2018-05-11T18:51:55.170Z,26.23
2018-05-11T18:54:23.891Z,30.20
2018-05-11T18:56:50.985Z,24.83
2018-05-11T18:59:18.493Z,26.07
2018-05-11T19:01:46.813Z,24.50
2018-05-11T19:04:15.009Z,27.87
2018-05-11T19:06:42.526Z,24.93
2018-05-11T19:09:10.043Z,23.90
2018-05-11T19:11:37.536Z,27.50
2018-05-11T19:14:05.041Z,26.80
2018-05-11T19:16:32.593Z,24.93
2018-05-11T19:19:00.054Z,27.97
2018-05-11T19:21:27.586Z,30.87
2018-05-11T19:23:55.073Z,35.17
2018-05-11T19:26:22.590Z,26.50
2018-05-11T19:28:50.098Z,28.70
2018-05-11T19:31:17.602Z,27.77
2018-05-11T19:33:45.877Z,26.80
2018-05-11T19:36:14.187Z,28.53
2018-05-11T19:38:41.709Z,27.70
2018-05-11T19:41:09.969Z,28.47
2018-05-11T19:43:37.506Z,26.80
2018-05-11T19:46:05.010Z,29.80
2018-05-11T19:48:33.276Z,32.37
2018-05-11T19:51:01.531Z,26.33
2018-05-11T19:53:29.062Z,31.30
2018-05-11T19:55:56.552Z,29.90
2018-05-11T19:58:24.841Z,29.27
2018-05-11T20:00:53.093Z,30.90
2018-05-11T20:03:20.660Z,36.93
2018-05-11T20:05:48.150Z,37.83
2018-05-11T20:08:16.406Z,34.77
2018-05-11T20:10:43.936Z,29.93
2018-05-11T20:13:11.437Z,30.67
2018-05-11T20:15:39.729Z,39.20
2018-05-11T20:18:08.041Z,29.57
2018-05-11T20:20:36.261Z,33.87
2018-05-11T20:23:03.763Z,33.00
2018-05-11T20:25:31.249Z,37.73
2018-05-11T20:27:58.963Z,30.73
2018-05-11T20:30:27.263Z,38.50
2018-05-11T20:32:54.777Z,33.57
2018-05-11T20:35:23.056Z,34.57
2018-05-11T20:37:50.563Z,33.73
2018-05-11T20:40:18.079Z,37.67
2018-05-11T20:42:45.602Z,34.73
2018-05-11T20:45:13.105Z,33.27
2018-05-11T20:47:40.608Z,32.90
2018-05-11T20:50:08.102Z,39.57
2018-05-11T20:52:35.601Z,37.70
2018-05-11T20:55:03.108Z,31.27
2018-05-11T20:57:30.638Z,33.10
2018-05-11T20:59:58.129Z,33.53
2018-05-11T21:02:25.601Z,38.30
2018-05-11T21:04:53.114Z,36.70
2018-05-11T21:07:20.643Z,33.00
2018-05-11T21:09:48.928Z,41.33
2018-05-11T21:12:16.421Z,35.10
2018-05-11T21:14:44.007Z,31.33
2018-05-11T21:17:12.257Z,38.53
2018-05-11T21:19:39.761Z,38.03
2018-05-11T21:22:08.036Z,38.83
2018-05-11T21:24:35.534Z,39.07
2018-05-11T21:27:03.735Z,33.50
2018-05-11T21:29:31.267Z,35.60
2018-05-11T21:31:58.744Z,38.93
2018-05-11T21:34:26.229Z,40.90
2018-05-11T21:36:54.514Z,38.57
2018-05-11T21:39:21.991Z,38.30
2018-05-11T21:41:50.257Z,36.17
2018-05-11T21:44:18.519Z,41.27
2018-05-11T21:46:46.026Z,37.57
2018-05-11T21:49:13.533Z,40.47
2018-05-11T21:51:41.012Z,38.03
2018-05-11T21:54:09.293Z,33.90
2018-05-11T21:56:37.549Z,32.87
2018-05-11T21:59:05.064Z,34.87
2018-05-11T22:01:32.544Z,35.67
2018-05-11T22:04:00.042Z,34.00
2018-05-11T22:06:27.547Z,32.30
2018-05-11T22:08:55.051Z,35.00
2018-05-11T22:11:22.561Z,38.23
2018-05-11T22:13:50.060Z,32.80
2018-05-11T22:16:17.572Z,37.40
2018-05-11T22:18:45.051Z,31.67
2018-05-11T22:21:12.573Z,33.90
2018-05-11T22:23:40.049Z,38.87
2018-05-11T22:26:07.615Z,41.50
2018-05-11T22:28:35.102Z,34.73
2018-05-11T22:31:02.591Z,37.27
2018-05-11T22:33:30.100Z,39.57
2018-05-11T22:35:57.590Z,37.50
2018-05-11T22:38:25.093Z,40.70
2018-05-11T22:40:52.558Z,33.23
2018-05-11T22:43:20.081Z,33.90
2018-05-11T22:45:47.581Z,33.90
2018-05-11T22:48:15.101Z,38.28
2018-05-11T22:50:43.382Z,41.43
2018-05-11T22:53:11.637Z,39.83
2018-05-11T22:55:39.150Z,37.43
2018-05-11T22:58:06.621Z,39.40
2018-05-11T23:00:34.144Z,33.25
2018-05-11T23:03:02.420Z,39.40
2018-05-11T23:05:30.693Z,31.42
2018-05-11T23:07:58.960Z,33.05
2018-05-11T23:10:26.433Z,34.40
2018-05-11T23:12:53.982Z,30.95
2018-05-11T23:15:22.256Z,35.13
2018-05-11T23:17:50.537Z,33.43
2018-05-11T23:20:18.822Z,31.75
2018-05-11T23:22:47.078Z,32.97
2018-05-11T23:25:14.589Z,39.65
2018-05-11T23:27:42.076Z,33.80
2018-05-11T23:30:09.566Z,36.80
2018-05-11T23:32:37.844Z,33.20
2018-05-11T23:35:06.158Z,35.53
2018-05-11T23:37:34.374Z,38.80
2018-05-11T23:40:01.873Z,36.63
2018-05-11T23:42:29.351Z,36.03
2018-05-11T23:44:56.850Z,34.65
2018-05-11T23:47:25.827Z,37.80
2018-05-11T23:49:53.340Z,37.28
2018-05-11T23:52:20.824Z,41.50
2018-05-11T23:54:48.342Z,39.05
2018-05-11T23:57:16.601Z,34.38
2018-05-11T23:59:44.113Z,37.30
